Stations météo

réclame
Mon MeteoGroup
Leuchtturm Kiel, Allemagne (10044): Température de l'air & dewpoint: 03.07.2020 20:00:00 - 09.07.2020 20:00:00 (CEST)Leuchtturm Kiel, Allemagne (10044): water temperature: 03.07.2020 20:00:00 - 09.07.2020 20:00:00 (CEST)Leuchtturm Kiel, Allemagne (10044): Vitesse du vent & gusts: 03.07.2020 20:00:00 - 09.07.2020 20:00:00 (CEST)Leuchtturm Kiel, Allemagne (10044): Direction du vent: 03.07.2020 20:00:00 - 09.07.2020 20:00:00 (CEST)Leuchtturm Kiel, Allemagne (10044): reduced air pressure: 03.07.2020 20:00:00 - 09.07.2020 20:00:00 (CEST)Leuchtturm Kiel, Allemagne (10044): Ensoleillement: 03.07.2020 20:00:00 - 09.07.2020 20:00:00 (CEST)
Date & Time tt [°C] td [°C] tw [°C] ff [km/h] ff [knt] fx [km/h] fx [knt] dd ppp [hPa] sd [min]
09.07.2020 20:00:00 13,8 8,3 17,0 7 4 14 7 ENE 1011,7 0
09.07.2020 19:00:00 13,8 7,8 17,0 9 5 24 13 NNE 1011,9 17
09.07.2020 18:00:00 14,2 6,9 16,9 15 8 23 12 NE 1011,7 21
09.07.2020 17:00:00 13,8 8,7 16,9 16 9 23 13 ENE 1011,9 0
09.07.2020 16:00:00 13,6 9,6 16,8 16 8 21 12 ENE 1011,9 0
09.07.2020 15:00:00 12,9 7,4 16,9 14 8 21 11 E 1012,4 0
09.07.2020 14:00:00 12,6 9,2 16,8 11 6 23 12 ESE 1012,9 0
09.07.2020 13:00:00 12,5 9,4 16,8 16 9 22 12 SSE 1013,4 0
09.07.2020 12:00:00 12,7 7,5 16,8 13 7 23 13 SSE 1013,6 0
09.07.2020 11:00:00 13,3 8,7 16,8 10 5 17 9 ESE 1013,8 0
09.07.2020 10:00:00 13,4 8,8 16,7 4 2 10 5 SE 1014,0 0
09.07.2020 09:00:00 14,1 8,9 16,6 0 0 7 4 N 1014,6 5
09.07.2020 08:00:00 13,0 9,1 16,4 6 3 18 10 WSW 1014,8 3
09.07.2020 07:00:00 12,8 9,2 16,5 5 3 14 8 WSW 1015,0 7
09.07.2020 06:00:00 12,5 8,8 16,5 10 5 14 7 W 1015,1 5
09.07.2020 05:00:00 12,0 8,8 16,4 12 7 22 12 WSW 1015,1 0
09.07.2020 04:00:00 12,3 9,1 16,2 15 8 21 11 WSW 1015,2 0
09.07.2020 03:00:00 12,6 8,8 16,2 15 8 22 12 W 1015,4 0
09.07.2020 02:00:00 12,8 8,6 16,2 18 10 28 15 W 1015,3 0
09.07.2020 01:00:00 13,1 8,1 16,3 23 12 29 16 W 1015,6 0
09.07.2020 00:00:00 13,3 8,3 16,3 24 13 35 19 W 1015,8 0
08.07.2020 23:00:00 13,5 7,2 16,3 30 16 36 19 WNW 1015,4 0
08.07.2020 22:00:00 14,1 6,8 16,3 30 16 40 22 W 1015,3 28
08.07.2020 21:00:00 14,6 6,7 16,4 33 18 40 21 WNW 1014,8 57
08.07.2020 20:00:00 15,3 6,4 16,5 27 14 37 20 WNW 1014,6 49
08.07.2020 19:00:00 15,3 6,3 16,5 34 18 41 22 W 1014,3 42
08.07.2020 18:00:00 15,6 7,0 16,5 32 17 40 22 W 1014,4 49
08.07.2020 17:00:00 15,5 5,9 16,4 31 17 38 20 W 1014,3 60
08.07.2020 16:00:00 15,6 6,3 16,3 29 16 38 21 W 1014,3 44
08.07.2020 15:00:00 15,4 6,6 16,2 33 18 42 23 WNW 1014,1 33
08.07.2020 14:00:00 15,9 7,5 16,1 24 13 34 18 WNW 1013,9 36
08.07.2020 13:00:00 14,9 7,4 16,0 26 14 34 18 W 1013,7 14
08.07.2020 12:00:00 14,9 7,1 16,0 27 15 37 20 WNW 1013,6 23
08.07.2020 11:00:00 14,4 7,0 16,0 24 13 36 19 W 1013,4 25
08.07.2020 10:00:00 13,6 7,4 16,0 27 15 37 20 WNW 1013,1 13
08.07.2020 09:00:00 13,4 8,1 16,0 29 15 37 20 W 1012,9 20
08.07.2020 08:00:00 12,9 8,2 16,0 26 14 30 16 W 1012,6 23
08.07.2020 07:00:00 12,0 9,6 15,9 29 15 34 19 WSW 1012,6 15
08.07.2020 06:00:00 11,5 9,6 15,9 31 17 36 20 WSW 1012,8 0
08.07.2020 05:00:00 11,7 9,8 15,9 26 14 34 18 WSW 1012,9 0
08.07.2020 04:00:00 11,8 9,4 16,0 28 15 41 22 WSW 1013,0 0
08.07.2020 03:00:00 11,7 9,7 16,0 31 17 35 19 WSW 1013,3 0
08.07.2020 02:00:00 11,7 9,5 16,0 29 16 34 18 WSW 1013,6 0
08.07.2020 01:00:00 12,3 8,9 16,0 27 14 35 19 WSW 1013,6 0
08.07.2020 00:00:00 12,3 9,4 16,0 27 15 32 18 WSW 1013,8 0
07.07.2020 23:00:00 12,5 10,0 16,0 27 15 37 20 WSW 1013,7 0
07.07.2020 22:00:00 12,7 9,2 16,0 29 16 45 24 WSW 1013,6 0
07.07.2020 21:00:00 13,4 8,1 15,9 36 20 45 25 W 1013,5 0
07.07.2020 20:00:00 13,3 8,5 15,9 33 18 48 26 W 1013,7 0
07.07.2020 19:00:00 13,5 8,0 16,0 37 20 58 31 W 1013,9 0
07.07.2020 18:00:00 14,2 10,0 16,1 35 19 46 25 WSW 1013,9 1
07.07.2020 17:00:00 13,9 9,7 16,2 37 20 56 31 SW 1014,4 0
07.07.2020 16:00:00 13,9 8,8 16,2 52 28 64 35 WSW 1014,7 0
07.07.2020 15:00:00 16,0 7,7 16,2 44 24 76 41 WSW 1014,5 5
07.07.2020 14:00:00 16,5 6,3 16,3 51 27 72 39 WSW 1014,6 37
07.07.2020 13:00:00 16,3 7,0 16,4 49 26 60 33 SW 1014,9 56
07.07.2020 12:00:00 15,7 6,5 16,4 39 21 49 27 WSW 1015,7 39
07.07.2020 11:00:00 14,6 6,6 16,3 36 20 50 27 WSW 1016,3 31
07.07.2020 10:00:00 14,3 7,8 16,2 35 19 44 24 W 1016,5 59
07.07.2020 09:00:00 13,5 7,4 16,2 37 20 45 24 W 1016,5 60
07.07.2020 08:00:00 13,3 7,7 16,2 39 21 47 25 W 1016,4 60
07.07.2020 07:00:00 12,8 7,8 16,3 36 19 44 24 W 1016,0 58
07.07.2020 06:00:00 12,6 7,3 16,4 39 21 49 27 W 1015,5 26
07.07.2020 05:00:00 12,6 7,4 16,4 41 22 49 26 W 1015,4 0
07.07.2020 04:00:00 12,4 7,0 16,4 40 21 49 26 WNW 1015,4 0
07.07.2020 03:00:00 12,6 7,9 16,3 42 23 58 31 W 1015,0 0
07.07.2020 02:00:00 12,8 7,4 16,5 48 26 56 31 W 1014,7 0
07.07.2020 01:00:00 13,2 7,6 16,4 41 22 54 29 W 1014,4 0
07.07.2020 00:00:00 13,4 8,1 16,3 46 25 57 31 W 1013,7 0
06.07.2020 23:00:00 13,6 7,7 16,2 43 23 55 30 W 1013,2 0
06.07.2020 22:00:00 14,0 7,2 16,1 45 24 64 35 W 1012,7 23
06.07.2020 21:00:00 14,6 7,7 16,2 53 28 70 38 WNW 1011,7 38
06.07.2020 20:00:00 15,2 7,7 16,3 54 29 68 37 W 1010,9 48
06.07.2020 19:00:00 15,7 8,5 16,4 51 28 60 33 WNW 1010,0 27
06.07.2020 18:00:00 15,2 10,3 16,4 46 25 73 40 W 1009,3 36
06.07.2020 17:00:00 15,0 9,4 16,5 55 30 79 43 W 1008,3 49
06.07.2020 16:00:00 15,7 8,6 16,7 52 28 70 38 W 1007,6 41
06.07.2020 15:00:00 15,4 8,4 16,7 56 30 76 41 W 1007,0 44
06.07.2020 14:00:00 15,9 9,1 16,7 54 29 69 37 W 1006,2 57
06.07.2020 13:00:00 15,1 8,7 16,7 51 28 63 34 W 1005,6 53
06.07.2020 12:00:00 14,3 8,7 16,7 50 27 68 37 W 1005,1 29
06.07.2020 11:00:00 14,4 9,9 16,7 43 23 63 34 W 1004,5 52
06.07.2020 10:00:00 14,0 8,9 16,7 46 25 65 35 W 1004,0 20
06.07.2020 09:00:00 13,3 10,1 16,7 55 30 73 39 SW 1003,8 52
06.07.2020 08:00:00 12,4 9,1 16,7 51 28 76 41 SW 1003,5 18
06.07.2020 07:00:00 12,7 9,5 16,8 56 30 67 36 SW 1003,5 30
06.07.2020 06:00:00 12,5 10,2 16,8 48 26 65 35 SW 1003,4 4
06.07.2020 05:00:00 12,8 8,6 16,8 53 29 64 35 SW 1003,6 0
06.07.2020 04:00:00 11,7 7,3 16,8 50 27 101 54 WSW 1004,1 0
06.07.2020 03:00:00 14,7 10,8 16,8 45 25 53 29 SSW 1003,6 0
06.07.2020 02:00:00 14,8 9,6 16,8 34 19 43 23 SW 1004,6 0
06.07.2020 01:00:00 14,6 10,1 16,7 36 19 42 23 SW 1005,1 0
06.07.2020 00:00:00 14,9 9,7 16,7 36 19 46 25 WSW 1005,4 0
05.07.2020 23:00:00 15,3 9,6 16,8 37 20 47 25 WSW 1005,6 0
05.07.2020 22:00:00 15,8 9,1 16,9 39 21 57 31 WSW 1005,6 23
05.07.2020 21:00:00 16,4 9,3 17,1 42 23 54 29 WSW 1005,2 44
05.07.2020 20:00:00 16,8 9,6 17,1 53 28 61 33 W 1004,9 29
05.07.2020 19:00:00 17,3 10,7 17,1 52 28 64 35 W 1005,1 25
05.07.2020 18:00:00 17,8 10,8 17,1 56 31 73 40 W 1004,5 15
05.07.2020 17:00:00 17,8 12,8 17,1 49 26 71 38 W 1004,2 46
05.07.2020 16:00:00 17,7 13,3 17,1 57 31 99 53 W 1003,9 23
05.07.2020 15:00:00 19,2 13,9 17,1 56 30 91 49 WSW 1003,2 28
05.07.2020 14:00:00 18,9 14,8 17,1 61 33 88 48 WSW 1003,0 14
05.07.2020 13:00:00 17,5 15,7 17,2 59 32 84 45 SW 1002,7 0
05.07.2020 12:00:00 17,4 15,5 17,3 62 34 89 48 SW 1002,7 0
05.07.2020 11:00:00 17,0 15,8 17,4 63 34 82 44 SW 1002,9 0
05.07.2020 10:00:00 17,4 15,4 17,4 55 30 71 39 SW 1002,9 0
05.07.2020 09:00:00 17,5 15,4 17,4 53 29 66 35 SW 1002,9 0
05.07.2020 08:00:00 17,4 15,9 17,4 56 30 67 36 SW 1003,4 0
05.07.2020 07:00:00 17,6 16,0 17,4 48 26 55 30 SW 1003,8 0
05.07.2020 06:00:00 16,9 16,2 17,4 39 21 48 26 SW 1004,3 0
05.07.2020 05:00:00 17,3 15,9 17,5 38 21 48 26 SW 1004,8 0
05.07.2020 04:00:00 17,3 16,0 17,5 38 20 45 24 SW 1005,2 0
05.07.2020 03:00:00 17,1 16,0 17,5 36 19 44 24 SSW 1006,0 0
05.07.2020 02:00:00 16,8 16,0 17,5 37 20 49 26 SW 1006,7 0
05.07.2020 01:00:00 16,9 15,7 17,5 39 21 50 27 SW 1007,2 0
05.07.2020 00:00:00 16,8 15,6 17,5 41 22 49 27 SW 1007,5 0
04.07.2020 23:00:00 16,7 15,7 17,5 41 22 48 26 SW 1007,9 0
04.07.2020 22:00:00 16,3 15,7 17,5 33 18 40 22 WSW 1008,1 0
04.07.2020 21:00:00 16,5 15,5 17,5 41 22 60 33 WSW 1008,0 0
04.07.2020 20:00:00 16,8 15,3 17,5 50 27 72 39 SW 1007,8 0
04.07.2020 19:00:00 16,8 15,3 17,5 52 28 75 40 SW 1008,1 0
04.07.2020 18:00:00 16,6 15,4 17,4 52 28 64 34 SW 1008,1 0
04.07.2020 17:00:00 16,1 15,1 17,3 47 26 62 33 SW 1008,4 0
04.07.2020 16:00:00 16,1 14,5 17,4 53 28 59 32 SSW 1008,4 0
04.07.2020 15:00:00 15,3 14,3 17,5 53 29 66 36 SSW 1008,6 0
04.07.2020 14:00:00 15,8 13,3 17,6 54 29 68 37 SW 1008,7 0
04.07.2020 13:00:00 16,1 13,0 17,7 52 28 74 40 SW 1009,0 0
04.07.2020 12:00:00 15,8 12,6 17,9 59 32 69 38 SW 1009,2 0
04.07.2020 11:00:00 15,6 12,7 18,0 50 27 75 41 SW 1009,3 0
04.07.2020 10:00:00 15,3 12,9 18,1 56 31 72 39 SW 1009,4 0
04.07.2020 09:00:00 14,8 12,2 18,1 63 34 74 40 SW 1009,3 0
04.07.2020 08:00:00 14,9 12,4 18,1 61 33 71 39 SW 1009,3 0
04.07.2020 07:00:00 14,7 12,6 18,2 57 31 70 38 SW 1009,3 0
04.07.2020 06:00:00 14,8 12,0 18,2 53 29 63 34 SW 1009,7 0
04.07.2020 05:00:00 16,0 11,3 18,2 51 28 63 34 SW 1009,9 0
04.07.2020 04:00:00 16,4 11,6 18,2 51 28 61 33 SW 1010,1 0
04.07.2020 03:00:00 16,5 11,8 18,2 48 26 55 30 SW 1010,2 0
04.07.2020 02:00:00 16,2 12,0 18,2 39 21 46 25 SSW 1011,0 0
04.07.2020 01:00:00 15,5 12,1 18,2 34 19 48 26 SW 1012,0 0
04.07.2020 00:00:00 15,6 12,2 18,2 35 19 48 26 SW 1012,5 0
03.07.2020 23:00:00 16,1 11,7 18,2 37 20 47 25 WSW 1012,7 0
03.07.2020 22:00:00 15,8 13,5 18,1 33 18 43 23 WSW 1013,1 0
03.07.2020 21:00:00 15,4 13,8 18,1 27 14 36 19 WSW 1013,1 0
03.07.2020 20:00:00 15,8 13,3 18,1 29 16 40 21 WSW 1012,9 0

tt = Température de l'air
td = dewpoint
tw = water temperature
ff = Vitesse du vent
fx = gusts
dd = Direction du vent
ppp = reduced air pressure
sd = Ensoleillement

stations d'obs. à proximité